Time;durP1;ratioP1;P1;durP2;ratioP2;P2;SDS_P1;SDS_P2;PMS_P1;PMS_P2;Temp;Humidity;BMP_temperature;BMP_pressure;BME280_temperature;BME280_humidity;BME280_pressure;Samples;Min_cycle;Max_cycle;Signal;HPM_P1;HPM_P2
2021/04/27 00:00:49;;;;;;;3.40;2.30;;;7.70;48.10;;;;;;5091403;28;20648;-86
2021/04/27 00:03:16;;;;;;;3.10;2.30;;;7.60;48.10;;;;;;5091346;28;20627;-84
2021/04/27 00:05:42;;;;;;;3.53;2.30;;;7.60;48.70;;;;;;5088297;28;21233;-84
2021/04/27 00:08:09;;;;;;;3.43;2.47;;;7.50;48.60;;;;;;5084517;28;20624;-85
2021/04/27 00:10:36;;;;;;;3.17;2.70;;;7.50;48.70;;;;;;5087205;28;21488;-84
2021/04/27 00:13:02;;;;;;;2.80;2.60;;;7.50;49.70;;;;;;5084274;28;20667;-84
2021/04/27 00:15:30;;;;;;;4.47;2.70;;;7.50;49.10;;;;;;5085944;28;20616;-83
2021/04/27 00:17:56;;;;;;;3.60;2.43;;;7.40;49.70;;;;;;5085507;28;20632;-84
2021/04/27 00:20:24;;;;;;;5.57;2.70;;;7.30;50.40;;;;;;5086498;28;20652;-85
2021/04/27 00:22:50;;;;;;;3.17;2.77;;;7.30;50.60;;;;;;5086315;28;20635;-84
2021/04/27 00:25:18;;;;;;;5.27;2.37;;;7.30;50.60;;;;;;5088898;28;20620;-84
2021/04/27 00:27:48;;;;;;;2.97;2.43;;;7.20;52.10;;;;;;5086067;28;20691;-85
2021/04/27 00:30:15;;;;;;;5.03;3.00;;;7.10;52.50;;;;;;5088005;28;20636;-85
2021/04/27 00:32:42;;;;;;;3.70;3.40;;;7.10;52.10;;;;;;5090369;28;20655;-85
2021/04/27 00:35:10;;;;;;;3.20;2.50;;;7.00;51.90;;;;;;5085991;28;20714;-84
2021/04/27 00:37:36;;;;;;;3.60;2.77;;;7.00;53.00;;;;;;5087163;28;20628;-85
2021/04/27 00:40:02;;;;;;;2.67;2.47;;;6.90;53.50;;;;;;5089317;28;20795;-84
2021/04/27 00:42:31;;;;;;;2.67;2.30;;;6.90;54.10;;;;;;5089995;28;20622;-85
2021/04/27 00:44:58;;;;;;;2.63;2.40;;;6.80;55.10;;;;;;5091097;28;20643;-85
2021/04/27 00:47:24;;;;;;;2.37;2.17;;;6.70;56.70;;;;;;5091567;28;21319;-85
2021/04/27 00:49:53;;;;;;;4.03;2.70;;;6.60;57.40;;;;;;5088765;28;20738;-84
2021/04/27 00:52:19;;;;;;;4.00;2.13;;;6.50;58.10;;;;;;5087046;28;20656;-84
2021/04/27 00:54:46;;;;;;;4.70;2.40;;;6.40;58.70;;;;;;5091676;28;20631;-84
2021/04/27 00:57:12;;;;;;;2.50;2.30;;;6.30;60.50;;;;;;5090968;28;20628;-84
2021/04/27 00:59:39;;;;;;;4.43;3.30;;;6.30;63.80;;;;;;5090126;28;20735;-84
2021/04/27 01:02:06;;;;;;;6.93;3.20;;;6.20;63.00;;;;;;5088725;28;20673;-85
2021/04/27 01:04:33;;;;;;;5.67;2.60;;;6.10;62.50;;;;;;5088142;28;20650;-85
2021/04/27 01:06:59;;;;;;;5.73;3.10;;;6.10;63.30;;;;;;5090700;28;20631;-85
2021/04/27 01:09:30;;;;;;;2.60;2.40;;;6.10;63.30;;;;;;5086970;28;20638;-84
2021/04/27 01:12:02;;;;;;;3.43;2.97;;;6.10;63.30;;;;;;5085263;28;20668;-84
2021/04/27 01:14:33;;;;;;;3.93;2.87;;;6.10;63.60;;;;;;5087750;28;20624;-85
2021/04/27 01:17:03;;;;;;;3.20;3.00;;;6.10;65.00;;;;;;5086739;28;20730;-84
2021/04/27 01:19:36;;;;;;;3.97;3.50;;;6.10;65.20;;;;;;5086058;28;20639;-84
2021/04/27 01:22:03;;;;;;;3.30;2.80;;;6.10;65.40;;;;;;5085582;28;20616;-84
2021/04/27 01:24:34;;;;;;;3.87;2.63;;;6.10;66.70;;;;;;5090264;28;20628;-84
2021/04/27 01:27:03;;;;;;;3.37;2.70;;;6.00;67.20;;;;;;5086106;28;20616;-85
2021/04/27 01:29:33;;;;;;;3.17;2.90;;;6.00;66.90;;;;;;5084042;28;20640;-84
2021/04/27 01:32:03;;;;;;;3.67;3.37;;;6.10;67.50;;;;;;5090736;28;20660;-85
2021/04/27 01:34:34;;;;;;;4.77;3.40;;;6.10;68.40;;;;;;5086049;28;20628;-85
2021/04/27 01:37:04;;;;;;;3.87;2.40;;;6.00;68.50;;;;;;5085639;28;21059;-84
2021/04/27 01:39:32;;;;;;;2.83;2.63;;;6.00;69.70;;;;;;5088520;28;20655;-85
2021/04/27 01:42:01;;;;;;;3.17;2.43;;;5.90;71.40;;;;;;5085666;28;20624;-84
2021/04/27 01:44:28;;;;;;;4.57;2.97;;;5.70;73.60;;;;;;5087442;28;21182;-85
2021/04/27 01:46:55;;;;;;;6.53;3.20;;;5.60;75.80;;;;;;5087365;28;21043;-85
2021/04/27 01:49:22;;;;;;;3.00;2.73;;;5.50;77.90;;;;;;5091746;28;20643;-84
2021/04/27 01:51:50;;;;;;;3.73;2.63;;;5.40;79.20;;;;;;5086234;28;20682;-84
2021/04/27 01:54:17;;;;;;;7.63;3.03;;;5.30;80.90;;;;;;5086212;28;21219;-84
2021/04/27 01:56:44;;;;;;;3.17;2.93;;;5.30;82.10;;;;;;5085288;28;20616;-84
2021/04/27 01:59:11;;;;;;;3.70;3.40;;;5.10;84.60;;;;;;5088364;28;20620;-84
2021/04/27 02:01:37;;;;;;;3.10;2.70;;;5.00;87.20;;;;;;5088211;28;20616;-83
2021/04/27 02:04:04;;;;;;;5.50;3.40;;;4.90;88.80;;;;;;5089877;28;20624;-84
2021/04/27 02:06:31;;;;;;;2.93;2.50;;;4.90;90.00;;;;;;5088881;28;20722;-84
2021/04/27 02:09:01;;;;;;;3.80;2.80;;;4.90;90.70;;;;;;5083385;28;20620;-85
2021/04/27 02:11:32;;;;;;;3.03;2.77;;;4.90;92.10;;;;;;5084831;28;20671;-86
2021/04/27 02:14:01;;;;;;;3.17;2.87;;;4.90;91.40;;;;;;5088250;28;20682;-84
2021/04/27 02:16:32;;;;;;;3.47;3.03;;;4.80;92.40;;;;;;5082329;28;20612;-84
2021/04/27 02:19:02;;;;;;;3.27;3.00;;;5.00;92.40;;;;;;5089027;28;21646;-86
2021/04/27 02:21:28;;;;;;;3.53;3.23;;;4.90;93.00;;;;;;5084706;28;20731;-85
2021/04/27 02:23:56;;;;;;;3.60;2.83;;;4.80;94.10;;;;;;5086926;28;20623;-85
2021/04/27 02:26:22;;;;;;;2.93;2.53;;;4.70;94.30;;;;;;5084822;28;21194;-84
2021/04/27 02:28:50;;;;;;;3.40;3.07;;;4.60;94.30;;;;;;5086081;28;21296;-85
2021/04/27 02:31:17;;;;;;;4.87;3.43;;;4.70;94.30;;;;;;5089416;28;20681;-84
2021/04/27 02:33:44;;;;;;;5.17;2.93;;;4.70;94.20;;;;;;5085882;28;20632;-84
2021/04/27 02:36:11;;;;;;;3.07;2.80;;;4.70;94.40;;;;;;5088640;28;20704;-84
2021/04/27 02:38:37;;;;;;;3.83;3.20;;;4.80;93.70;;;;;;5085625;28;20620;-84
2021/04/27 02:41:04;;;;;;;3.23;2.67;;;4.90;93.50;;;;;;5089367;28;20647;-84
2021/04/27 02:43:31;;;;;;;3.43;2.50;;;4.90;94.20;;;;;;5087486;28;20628;-84
2021/04/27 02:45:57;;;;;;;3.40;3.13;;;4.80;93.80;;;;;;5084323;28;20620;-83
2021/04/27 02:48:26;;;;;;;3.40;3.03;;;4.80;94.80;;;;;;5085007;28;20624;-84
2021/04/27 02:50:56;;;;;;;5.10;3.30;;;4.70;96.00;;;;;;5086409;28;20652;-84
2021/04/27 02:53:23;;;;;;;3.47;2.80;;;4.70;96.00;;;;;;5086725;28;21019;-84
2021/04/27 02:55:49;;;;;;;5.00;3.30;;;4.70;96.50;;;;;;5086065;28;20636;-83
2021/04/27 02:58:17;;;;;;;3.67;3.40;;;4.60;96.40;;;;;;5087305;28;20644;-84
2021/04/27 03:00:43;;;;;;;3.43;2.90;;;4.60;96.40;;;;;;5083809;28;20652;-84
2021/04/27 03:03:10;;;;;;;3.93;2.70;;;4.60;96.20;;;;;;5087529;28;20620;-84
2021/04/27 03:05:37;;;;;;;4.07;2.93;;;4.70;95.50;;;;;;5089003;28;20642;-85
2021/04/27 03:08:05;;;;;;;7.07;2.70;;;4.60;96.20;;;;;;5086351;28;21174;-85
2021/04/27 03:10:31;;;;;;;3.80;2.87;;;4.70;95.50;;;;;;5087284;28;20682;-84
2021/04/27 03:12:58;;;;;;;3.30;2.70;;;4.80;94.60;;;;;;5084529;28;20773;-84
2021/04/27 03:15:25;;;;;;;4.63;3.07;;;4.70;96.10;;;;;;5083802;28;20631;-84
2021/04/27 03:17:51;;;;;;;4.67;3.30;;;4.70;96.80;;;;;;5088954;28;20628;-84
2021/04/27 03:20:18;;;;;;;2.97;2.77;;;4.70;96.10;;;;;;5088763;28;21000;-84
2021/04/27 03:22:44;;;;;;;3.67;3.33;;;4.60;96.00;;;;;;5083713;28;20862;-84
2021/04/27 03:25:14;;;;;;;5.43;3.40;;;4.50;96.00;;;;;;5086658;28;20685;-85
2021/04/27 03:27:41;;;;;;;4.17;3.57;;;4.50;96.30;;;;;;5083364;28;21248;-84
2021/04/27 03:30:11;;;;;;;3.50;3.20;;;4.50;96.30;;;;;;5084366;28;20735;-84
2021/04/27 03:32:38;;;;;;;2.80;2.60;;;4.50;96.30;;;;;;5088603;28;20656;-83
2021/04/27 03:35:06;;;;;;;3.47;3.17;;;4.60;96.20;;;;;;5087107;28;20632;-84
2021/04/27 03:37:32;;;;;;;3.67;3.37;;;4.60;96.50;;;;;;5084869;28;20731;-84
2021/04/27 03:39:58;;;;;;;3.40;3.07;;;4.60;96.50;;;;;;5086170;28;20652;-86
2021/04/27 03:42:26;;;;;;;3.70;2.93;;;4.70;96.10;;;;;;5085421;28;21030;-85
2021/04/27 03:44:53;;;;;;;5.23;2.57;;;4.70;96.90;;;;;;5084609;28;20589;-85
2021/04/27 03:47:19;;;;;;;3.30;3.00;;;4.80;95.90;;;;;;5084688;28;21155;-85
2021/04/27 03:49:45;;;;;;;3.23;2.93;;;4.80;96.40;;;;;;5088649;28;20651;-84
2021/04/27 03:52:12;;;;;;;6.20;3.30;;;4.60;96.70;;;;;;5084415;28;20671;-84
2021/04/27 03:54:39;;;;;;;3.50;3.03;;;4.50;96.80;;;;;;5083972;28;20632;-85
2021/04/27 03:57:07;;;;;;;4.40;3.00;;;4.50;97.30;;;;;;5085263;28;20642;-83
2021/04/27 03:59:34;;;;;;;3.73;3.20;;;4.40;97.00;;;;;;5082642;28;21096;-84
2021/04/27 04:02:00;;;;;;;4.43;3.13;;;4.50;96.90;;;;;;5088775;28;20627;-84
2021/04/27 04:04:27;;;;;;;3.60;3.13;;;4.50;97.40;;;;;;5087933;28;21253;-84
2021/04/27 04:06:53;;;;;;;3.20;2.93;;;4.60;96.70;;;;;;5090292;28;21144;-84
2021/04/27 04:09:19;;;;;;;4.13;2.90;;;4.60;96.80;;;;;;5086968;28;20648;-84
2021/04/27 04:11:46;;;;;;;4.23;3.07;;;4.60;96.90;;;;;;5084756;28;20740;-84
2021/04/27 04:14:12;;;;;;;4.10;3.80;;;4.50;96.90;;;;;;5086515;28;20703;-85
2021/04/27 04:16:40;;;;;;;6.50;4.10;;;4.50;97.20;;;;;;5081908;28;21297;-84
2021/04/27 04:19:06;;;;;;;5.27;3.13;;;4.50;97.70;;;;;;5087218;28;20627;-84
2021/04/27 04:21:32;;;;;;;3.10;2.80;;;4.40;98.20;;;;;;5086849;28;20640;-83
2021/04/27 04:23:59;;;;;;;5.10;3.50;;;4.30;98.70;;;;;;5087382;28;20620;-83
2021/04/27 04:26:25;;;;;;;3.50;3.20;;;4.40;98.50;;;;;;5090172;28;21272;-85
2021/04/27 04:28:51;;;;;;;4.03;3.47;;;4.40;98.40;;;;;;5088127;28;20620;-85
2021/04/27 04:31:18;;;;;;;4.00;3.20;;;4.40;98.20;;;;;;5089420;28;21211;-85
2021/04/27 04:33:45;;;;;;;3.10;2.57;;;4.40;98.20;;;;;;5089170;28;20649;-84
2021/04/27 04:36:11;;;;;;;3.93;3.63;;;4.30;97.90;;;;;;5084605;28;20624;-84
2021/04/27 04:38:38;;;;;;;5.57;2.77;;;4.40;98.10;;;;;;5085873;28;20669;-85
2021/04/27 04:41:05;;;;;;;5.10;2.80;;;4.40;98.00;;;;;;5086558;28;20652;-85
2021/04/27 04:43:31;;;;;;;4.73;3.57;;;4.30;98.60;;;;;;5084241;28;20635;-85
2021/04/27 04:45:58;;;;;;;3.67;2.90;;;4.40;98.60;;;;;;5087173;28;20987;-85
2021/04/27 04:48:24;;;;;;;3.70;2.90;;;4.50;97.90;;;;;;5084597;28;20682;-85
2021/04/27 04:50:52;;;;;;;3.97;3.37;;;4.50;98.10;;;;;;5083539;28;20687;-85
2021/04/27 04:53:21;;;;;;;6.03;3.37;;;4.60;98.10;;;;;;5083567;28;20616;-84
2021/04/27 04:55:47;;;;;;;4.83;4.03;;;4.60;98.10;;;;;;5086110;28;20820;-85
2021/04/27 04:58:14;;;;;;;6.43;3.73;;;4.70;97.70;;;;;;5085678;28;20630;-85
2021/04/27 05:00:40;;;;;;;4.67;4.17;;;4.70;98.10;;;;;;5086206;28;21222;-85
2021/04/27 05:03:07;;;;;;;5.63;4.43;;;4.80;97.70;;;;;;5088620;28;20628;-86
2021/04/27 05:05:34;;;;;;;4.97;4.57;;;4.90;97.70;;;;;;5090823;28;21216;-86
2021/04/27 05:08:10;;;;;;;5.03;3.80;;;4.90;98.60;;;;;;5080827;28;20632;-86
2021/04/27 05:10:38;;;;;;;5.30;3.87;;;5.00;97.70;;;;;;5085104;28;20663;-86
2021/04/27 05:13:04;;;;;;;4.50;3.87;;;5.00;97.80;;;;;;5088376;28;20674;-85
2021/04/27 05:15:32;;;;;;;5.17;3.77;;;5.10;97.30;;;;;;5088725;28;20731;-85
2021/04/27 05:17:59;;;;;;;4.30;3.90;;;5.20;97.00;;;;;;5088445;28;20949;-86
2021/04/27 05:20:26;;;;;;;5.13;3.77;;;5.30;96.90;;;;;;5090716;28;20644;-86
2021/04/27 05:22:53;;;;;;;6.93;3.40;;;5.40;96.70;;;;;;5085987;28;20659;-85
2021/04/27 05:25:21;;;;;;;4.17;3.37;;;5.50;95.20;;;;;;5084077;28;20632;-84
2021/04/27 05:27:48;;;;;;;5.20;3.40;;;5.70;95.90;;;;;;5087888;28;20691;-85
2021/04/27 05:30:15;;;;;;;5.40;3.50;;;5.80;94.90;;;;;;5085984;28;21237;-85
2021/04/27 05:32:42;;;;;;;5.93;4.00;;;5.80;94.70;;;;;;5088034;28;21234;-84
2021/04/27 05:35:12;;;;;;;7.00;3.97;;;5.80;94.50;;;;;;5086059;28;20639;-85
2021/04/27 05:37:40;;;;;;;3.90;3.60;;;5.90;94.10;;;;;;5089149;28;20620;-85
2021/04/27 05:40:07;;;;;;;4.13;3.40;;;6.10;93.50;;;;;;5089798;28;20688;-86
2021/04/27 05:42:36;;;;;;;9.43;3.93;;;6.20;93.70;;;;;;5088892;28;20620;-85
2021/04/27 05:45:03;;;;;;;5.30;4.00;;;6.20;93.00;;;;;;5091441;28;21192;-85
2021/04/27 05:47:30;;;;;;;3.80;3.50;;;6.30;92.90;;;;;;5089774;28;20628;-85
2021/04/27 05:49:57;;;;;;;6.33;3.47;;;6.50;92.30;;;;;;5088754;28;20686;-84
2021/04/27 05:52:23;;;;;;;5.13;4.23;;;6.50;92.30;;;;;;5088753;28;21145;-84
2021/04/27 05:54:49;;;;;;;8.67;4.30;;;6.60;92.40;;;;;;5091769;28;20635;-86
2021/04/27 05:57:16;;;;;;;3.63;3.33;;;6.60;92.30;;;;;;5092679;28;20639;-85
2021/04/27 05:59:43;;;;;;;4.17;3.77;;;6.80;92.00;;;;;;5086652;28;20631;-85
2021/04/27 06:02:09;;;;;;;5.07;4.57;;;6.90;92.00;;;;;;5087149;28;20631;-85
2021/04/27 06:04:38;;;;;;;4.33;3.83;;;7.20;91.50;;;;;;5088683;28;21224;-85
2021/04/27 06:07:05;;;;;;;4.23;3.83;;;7.40;90.90;;;;;;5088760;28;20636;-85
2021/04/27 06:09:31;;;;;;;7.60;4.30;;;7.50;90.80;;;;;;5089925;28;20682;-85
2021/04/27 06:12:00;;;;;;;4.60;3.37;;;7.60;90.50;;;;;;5085221;28;20672;-85
2021/04/27 06:14:27;;;;;;;5.70;3.57;;;7.70;90.20;;;;;;5089161;28;20981;-85
2021/04/27 06:16:54;;;;;;;3.60;3.30;;;7.70;90.70;;;;;;5083896;28;20731;-86
2021/04/27 06:19:20;;;;;;;4.60;4.20;;;7.60;90.70;;;;;;5085601;28;20684;-85
2021/04/27 06:21:47;;;;;;;4.50;4.10;;;7.70;90.60;;;;;;5086149;28;20604;-85
2021/04/27 06:24:15;;;;;;;5.03;4.03;;;7.90;89.70;;;;;;5089657;28;20636;-85
2021/04/27 06:26:41;;;;;;;4.17;3.57;;;8.20;89.20;;;;;;5087882;28;20634;-85
2021/04/27 06:29:08;;;;;;;6.50;4.77;;;8.30;90.00;;;;;;5089855;28;20634;-85
2021/04/27 06:31:36;;;;;;;4.93;4.43;;;8.20;89.40;;;;;;5087892;28;20623;-86
2021/04/27 06:34:04;;;;;;;10.70;5.07;;;8.40;87.80;;;;;;5089087;28;20658;-85
2021/04/27 06:36:31;;;;;;;7.30;4.27;;;8.40;87.70;;;;;;5090946;28;20653;-87
2021/04/27 06:38:57;;;;;;;10.20;5.53;;;8.70;89.30;;;;;;5087605;28;20640;-87
2021/04/27 06:41:24;;;;;;;6.03;4.43;;;8.80;87.60;;;;;;5087893;28;20640;-87
2021/04/27 06:43:52;;;;;;;5.20;3.57;;;8.90;86.50;;;;;;5090737;28;20632;-86
2021/04/27 06:46:19;;;;;;;6.33;4.90;;;9.00;87.90;;;;;;5087945;28;20634;-85
2021/04/27 06:48:46;;;;;;;5.53;5.00;;;9.00;85.10;;;;;;5086251;28;20616;-86
2021/04/27 06:51:17;;;;;;;4.60;4.20;;;9.00;87.30;;;;;;5091479;28;21405;-86
2021/04/27 06:53:43;;;;;;;5.13;4.53;;;9.20;85.20;;;;;;5088393;28;20656;-86
2021/04/27 06:56:10;;;;;;;5.20;4.60;;;9.50;85.40;;;;;;5091898;28;20624;-85
2021/04/27 06:58:36;;;;;;;5.50;4.83;;;9.70;84.10;;;;;;5088984;28;20620;-85
2021/04/27 07:01:04;;;;;;;5.50;4.60;;;9.90;84.10;;;;;;5088297;28;20687;-86
2021/04/27 07:03:31;;;;;;;9.90;4.67;;;9.90;83.30;;;;;;5095244;28;20616;-87
2021/04/27 07:05:58;;;;;;;5.63;4.53;;;9.70;83.20;;;;;;5101937;28;20634;-85
2021/04/27 07:08:26;;;;;;;5.63;4.50;;;9.60;84.20;;;;;;5082473;28;21097;-86
2021/04/27 07:10:56;;;;;;;5.30;4.20;;;9.70;85.00;;;;;;5091734;28;21289;-87
2021/04/27 07:13:23;;;;;;;7.13;4.57;;;9.90;83.30;;;;;;5092870;28;21009;-87
2021/04/27 07:15:51;;;;;;;4.60;4.20;;;9.90;83.30;;;;;;5095269;28;20630;-87
2021/04/27 07:18:18;;;;;;;6.30;5.80;;;10.00;81.10;;;;;;5093384;28;20634;-86
2021/04/27 07:20:48;;;;;;;4.80;4.10;;;10.20;81.10;;;;;;5093423;28;20644;-87
2021/04/27 07:23:21;;;;;;;4.53;4.13;;;10.20;80.60;;;;;;5092502;28;20604;-86
2021/04/27 07:25:48;;;;;;;4.63;4.13;;;10.10;80.60;;;;;;5095209;28;20736;-86
2021/04/27 07:28:16;;;;;;;6.13;5.30;;;10.20;80.40;;;;;;5095059;28;20627;-85
2021/04/27 07:30:45;;;;;;;4.63;4.23;;;10.30;79.50;;;;;;5096359;28;20651;-85
2021/04/27 07:33:12;;;;;;;5.33;4.27;;;10.70;79.10;;;;;;5100505;28;20675;-86
2021/04/27 07:35:38;;;;;;;7.80;4.13;;;10.70;79.20;;;;;;5093080;28;20624;-86
2021/04/27 07:38:05;;;;;;;5.33;4.83;;;10.50;78.70;;;;;;5101468;28;20702;-87
2021/04/27 07:40:34;;;;;;;7.10;5.03;;;10.70;79.70;;;;;;5104404;28;21348;-86
2021/04/27 07:43:04;;;;;;;5.70;5.10;;;10.90;78.70;;;;;;5104122;28;20655;-87
2021/04/27 07:45:34;;;;;;;5.13;4.73;;;11.20;76.90;;;;;;5105079;28;21232;-87
2021/04/27 07:48:06;;;;;;;5.63;5.13;;;11.30;76.50;;;;;;5102195;28;20647;-86
2021/04/27 07:50:33;;;;;;;5.43;4.90;;;11.40;75.60;;;;;;5104004;28;20631;-85
2021/04/27 07:53:01;;;;;;;8.17;4.60;;;11.30;74.20;;;;;;5093052;28;20710;-87
2021/04/27 07:55:27;;;;;;;6.50;5.57;;;11.30;74.80;;;;;;5091082;28;20652;-86
2021/04/27 07:57:54;;;;;;;6.10;4.93;;;11.40;73.90;;;;;;5089425;28;20638;-87
2021/04/27 08:00:23;;;;;;;9.20;4.60;;;11.40;75.20;;;;;;5088448;28;20713;-86
2021/04/27 08:02:51;;;;;;;5.43;4.90;;;11.40;75.10;;;;;;5085131;28;20631;-87
2021/04/27 08:05:19;;;;;;;5.37;4.73;;;11.60;73.10;;;;;;5086254;28;20685;-87
2021/04/27 08:07:47;;;;;;;5.80;4.67;;;11.80;73.60;;;;;;5086718;28;20734;-87
2021/04/27 08:10:14;;;;;;;5.13;4.70;;;11.80;72.40;;;;;;5087645;28;20772;-89
2021/04/27 08:12:48;;;;;;;6.10;4.50;;;12.10;73.50;;;;;;5090314;28;20660;-89
2021/04/27 08:15:20;;;;;;;6.17;5.57;;;11.80;73.20;;;;;;5091407;28;21016;-90
2021/04/27 08:17:48;;;;;;;6.00;5.33;;;12.20;72.60;;;;;;5092456;28;20640;-91
2021/04/27 08:20:15;;;;;;;5.53;5.03;;;12.50;73.90;;;;;;5089225;28;20728;-90
2021/04/27 08:22:43;;;;;;;7.13;4.63;;;12.80;71.40;;;;;;5088537;28;20660;-90
2021/04/27 08:25:14;;;;;;;6.93;5.20;;;12.90;69.70;;;;;;5091780;28;20652;-89
2021/04/27 08:27:40;;;;;;;9.37;5.47;;;12.60;68.40;;;;;;5089529;28;20639;-91
2021/04/27 08:30:08;;;;;;;5.83;5.33;;;12.60;69.20;;;;;;5091229;28;21248;-92
2021/04/27 08:32:36;;;;;;;8.60;5.40;;;12.80;70.50;;;;;;5095106;28;20753;-90
2021/04/27 08:35:05;;;;;;;8.80;5.50;;;13.00;70.90;;;;;;5094745;28;20672;-91
2021/04/27 08:37:32;;;;;;;6.90;4.97;;;13.00;70.80;;;;;;5089238;28;20693;-91
2021/04/27 08:39:59;;;;;;;6.43;5.50;;;13.10;70.50;;;;;;5092337;28;20640;-91
2021/04/27 08:42:26;;;;;;;6.47;4.90;;;13.20;71.70;;;;;;5093092;28;20697;-92
2021/04/27 08:44:53;;;;;;;7.33;5.03;;;13.40;69.80;;;;;;5092680;28;20707;-91
2021/04/27 08:47:22;;;;;;;5.93;5.40;;;13.30;67.40;;;;;;5092316;28;20714;-91
2021/04/27 08:49:49;;;;;;;9.80;5.00;;;13.30;66.60;;;;;;5093563;28;21006;-91
2021/04/27 08:52:16;;;;;;;8.37;6.33;;;13.50;67.70;;;;;;5096265;28;21054;-93
2021/04/27 08:54:43;;;;;;;6.93;5.23;;;13.30;66.90;;;;;;5098808;28;20666;-92
2021/04/27 08:57:10;;;;;;;5.90;5.40;;;13.60;67.50;;;;;;5096212;28;21105;-91
2021/04/27 08:59:38;;;;;;;7.20;6.03;;;13.50;65.30;;;;;;5094713;28;21152;-91
2021/04/27 09:02:05;;;;;;;8.07;5.83;;;13.70;65.80;;;;;;5092800;28;20634;-91
2021/04/27 09:04:44;;;;;;;7.80;5.80;;;14.20;65.80;;;;;;5095131;28;20640;-92
2021/04/27 09:07:12;;;;;;;7.03;6.03;;;13.90;65.20;;;;;;5095430;28;20634;-91
2021/04/27 09:09:43;;;;;;;10.23;7.40;;;14.30;64.70;;;;;;5094472;28;20725;-92
2021/04/27 09:12:12;;;;;;;7.97;5.83;;;14.50;64.60;;;;;;5098115;28;20651;-90
2021/04/27 09:14:40;;;;;;;7.73;6.30;;;14.50;63.50;;;;;;5096871;28;20731;-92
2021/04/27 09:17:09;;;;;;;7.20;5.43;;;14.60;62.60;;;;;;5105455;28;20620;-92
2021/04/27 09:19:42;;;;;;;7.10;5.63;;;15.10;62.40;;;;;;5099221;28;20747;-93
2021/04/27 09:22:15;;;;;;;6.93;6.23;;;15.30;62.00;;;;;;5087153;28;20628;-91
2021/04/27 09:24:46;;;;;;;10.23;6.10;;;14.70;60.30;;;;;;5091591;28;20741;-92
2021/04/27 09:27:14;;;;;;;9.67;5.97;;;15.00;59.60;;;;;;5095518;28;20611;-92
2021/04/27 09:29:44;;;;;;;9.33;6.00;;;14.90;59.90;;;;;;5100304;28;20627;-92
2021/04/27 09:32:12;;;;;;;9.03;5.83;;;15.30;59.30;;;;;;5094411;28;20646;-92
2021/04/27 09:38:44;;;;;;;6.90;6.30;;;15.80;57.00;;;;;;5084947;28;20708;-93
2021/04/27 09:41:12;;;;;;;6.90;6.20;;;16.00;57.70;;;;;;5089151;28;20812;-92
2021/04/27 09:43:40;;;;;;;11.63;6.80;;;15.80;56.50;;;;;;5090113;28;20624;-92
2021/04/27 09:46:10;;;;;;;8.43;6.90;;;15.80;56.10;;;;;;5091545;28;21033;-92
2021/04/27 09:48:39;;;;;;;9.80;6.50;;;16.00;55.90;;;;;;5092912;28;21190;-91
2021/04/27 09:51:19;;;;;;;8.07;7.27;;;15.70;55.50;;;;;;5094752;28;20701;-92
2021/04/27 09:53:50;;;;;;;7.47;6.77;;;15.80;56.20;;;;;;5091582;28;20655;-92
2021/04/27 09:56:47;;;;;;;7.23;6.53;;;15.40;54.80;;;;;;5100654;28;20626;-91
2021/04/27 09:59:15;;;;;;;7.87;7.00;;;15.90;56.60;;;;;;5092709;28;21064;-93
2021/04/27 10:01:47;;;;;;;8.40;6.53;;;15.70;55.10;;;;;;5092467;28;20624;-92
2021/04/27 10:04:27;;;;;;;9.63;6.43;;;16.00;54.70;;;;;;5096826;28;21173;-92
2021/04/27 10:07:01;;;;;;;6.47;5.87;;;16.00;55.20;;;;;;5089624;28;20628;-92
2021/04/27 10:09:28;;;;;;;11.60;7.30;;;16.10;54.60;;;;;;5092338;28;20650;-93
2021/04/27 10:11:56;;;;;;;7.50;6.27;;;16.60;54.90;;;;;;5092028;28;20628;-92
2021/04/27 10:14:23;;;;;;;7.90;6.97;;;16.70;53.20;;;;;;5088429;28;20624;-92
2021/04/27 10:17:17;;;;;;;6.27;5.60;;;16.90;53.30;;;;;;5096127;28;20693;-93
2021/04/27 10:19:44;;;;;;;7.20;6.50;;;16.90;53.10;;;;;;5092569;28;20655;-92
2021/04/27 10:22:12;;;;;;;7.60;6.90;;;17.40;53.50;;;;;;5095381;28;20629;-92
2021/04/27 10:24:41;;;;;;;7.10;6.40;;;17.30;51.10;;;;;;5098128;28;20628;-91
2021/04/27 10:27:09;;;;;;;8.77;7.67;;;17.10;51.50;;;;;;5092433;28;20631;-92
2021/04/27 10:29:38;;;;;;;8.57;6.57;;;17.40;50.70;;;;;;5092426;28;20670;-92
2021/04/27 10:32:20;;;;;;;7.53;5.97;;;17.70;49.90;;;;;;5088191;28;20659;-93
2021/04/27 10:35:13;;;;;;;7.10;6.40;;;17.60;49.60;;;;;;5087769;28;20638;-92
2021/04/27 10:38:01;;;;;;;13.57;6.80;;;17.10;49.10;;;;;;5108811;28;20607;-93
2021/04/27 10:40:47;;;;;;;6.50;5.70;;;17.60;50.40;;;;;;5107492;28;20660;-93
2021/04/27 10:43:44;;;;;;;15.90;6.63;;;18.00;49.40;;;;;;5105115;28;20644;-90
2021/04/27 10:46:52;;;;;;;9.07;6.67;;;18.10;46.70;;;;;;5105239;28;20628;-91
2021/04/27 10:49:33;;;;;;;7.73;6.60;;;17.70;44.80;;;;;;5100760;28;20648;-92
2021/04/27 10:52:02;;;;;;;7.53;6.87;;;18.00;45.20;;;;;;5098507;28;20659;-92
2021/04/27 10:54:32;;;;;;;7.70;6.90;;;18.40;43.90;;;;;;5097555;28;20643;-92
2021/04/27 10:57:14;;;;;;;7.50;6.70;;;18.70;44.30;;;;;;5086656;28;20636;-94
2021/04/27 10:59:55;;;;;;;7.13;6.43;;;19.10;44.40;;;;;;5090663;28;21237;-92
2021/04/27 11:02:25;;;;;;;10.40;8.00;;;18.90;42.40;;;;;;5088166;28;20650;-92
2021/04/27 11:04:56;;;;;;;9.43;7.13;;;18.50;43.80;;;;;;5094459;28;21495;-92
2021/04/27 11:07:37;;;;;;;7.83;7.03;;;18.40;44.70;;;;;;5094334;28;21237;-93
2021/04/27 11:10:28;;;;;;;10.73;7.40;;;19.40;46.40;;;;;;5087531;28;20663;-93
2021/04/27 11:13:01;;;;;;;9.77;7.23;;;19.40;45.50;;;;;;5091391;28;20660;-92
2021/04/27 11:15:31;;;;;;;10.50;7.40;;;19.20;44.50;;;;;;5094222;28;20632;-91
2021/04/27 11:18:17;;;;;;;10.90;8.40;;;19.30;45.40;;;;;;5091620;28;21563;-92
2021/04/27 11:20:59;;;;;;;7.70;6.90;;;19.50;44.80;;;;;;5087376;28;20659;-93
2021/04/27 11:23:56;;;;;;;7.67;7.00;;;20.40;44.40;;;;;;5094090;28;20735;-91
2021/04/27 11:26:44;;;;;;;9.13;8.03;;;20.50;44.60;;;;;;5089851;28;21468;-93
2021/04/27 11:29:23;;;;;;;9.20;7.77;;;20.80;44.00;;;;;;5086494;28;20668;-93
2021/04/27 11:32:10;;;;;;;7.93;7.20;;;20.40;42.40;;;;;;5088445;28;20666;-91
2021/04/27 11:35:00;;;;;;;8.67;7.87;;;20.30;44.50;;;;;;5097439;28;20719;-92
2021/04/27 11:37:31;;;;;;;8.83;7.17;;;20.70;42.50;;;;;;5086361;28;20716;-93
2021/04/27 11:40:13;;;;;;;9.43;7.60;;;20.90;41.80;;;;;;5092968;28;20668;-93
2021/04/27 11:42:39;;;;;;;7.70;7.10;;;20.70;41.30;;;;;;5090782;28;21073;-93
2021/04/27 11:45:09;;;;;;;9.00;8.10;;;20.70;42.20;;;;;;5091622;28;20628;-94
2021/04/27 11:47:39;;;;;;;7.77;7.00;;;21.00;40.50;;;;;;5087375;28;21177;-94
2021/04/27 11:50:08;;;;;;;7.90;7.20;;;21.70;41.40;;;;;;5093909;28;21243;-93
2021/04/27 11:53:03;;;;;;;9.33;8.43;;;21.30;42.20;;;;;;5091398;28;20688;-94
2021/04/27 11:55:42;;;;;;;9.13;7.53;;;21.00;41.70;;;;;;5087111;28;20612;-94
2021/04/27 11:58:13;;;;;;;7.73;7.10;;;21.50;39.90;;;;;;5090859;28;20636;-95
2021/04/27 12:00:44;;;;;;;11.30;8.77;;;21.30;41.30;;;;;;5090569;28;20631;-93
2021/04/27 12:03:27;;;;;;;9.70;7.87;;;20.90;41.70;;;;;;5092228;28;20639;-94
2021/04/27 12:05:56;;;;;;;8.57;7.67;;;21.60;40.40;;;;;;5096216;28;20646;-93
2021/04/27 12:08:29;;;;;;;10.23;8.00;;;21.30;40.00;;;;;;5094752;28;20635;-93
2021/04/27 12:11:12;;;;;;;9.37;8.07;;;22.00;40.50;;;;;;5090731;28;20645;-94
2021/04/27 12:13:43;;;;;;;7.83;7.07;;;22.50;39.00;;;;;;5090182;28;20656;-95
2021/04/27 12:16:12;;;;;;;8.40;7.70;;;23.00;38.10;;;;;;5087520;28;21144;-93
2021/04/27 12:18:58;;;;;;;9.87;9.07;;;23.30;38.50;;;;;;5091333;28;20640;-94
2021/04/27 12:21:30;;;;;;;9.60;7.83;;;23.80;38.10;;;;;;5087851;28;20640;-93
2021/04/27 12:24:16;;;;;;;9.60;8.80;;;23.30;38.60;;;;;;5089853;28;20643;-94
2021/04/27 12:26:47;;;;;;;9.83;8.87;;;23.50;38.40;;;;;;5091590;28;21202;-93
2021/04/27 12:29:15;;;;;;;8.37;7.67;;;23.30;38.30;;;;;;5088568;28;20648;-93
2021/04/27 12:31:42;;;;;;;10.17;9.27;;;23.50;38.30;;;;;;5095763;28;20628;-93
2021/04/27 12:34:15;;;;;;;8.70;8.00;;;24.00;37.70;;;;;;5086489;28;20663;-93
2021/04/27 12:36:46;;;;;;;8.30;7.50;;;23.80;37.30;;;;;;5090988;28;20612;-93
2021/04/27 12:39:31;;;;;;;8.60;7.90;;;22.90;36.20;;;;;;5084478;28;20719;-93
2021/04/27 12:42:00;;;;;;;8.70;8.00;;;23.70;37.50;;;;;;5091093;28;20685;-94
2021/04/27 12:44:29;;;;;;;8.87;8.07;;;23.60;37.30;;;;;;5093634;28;20666;-93
2021/04/27 12:46:57;;;;;;;7.90;7.30;;;23.80;37.00;;;;;;5091918;28;20644;-91
2021/04/27 12:49:33;;;;;;;8.90;8.20;;;24.40;37.60;;;;;;5094736;28;20975;-91
2021/04/27 12:52:07;;;;;;;9.60;7.77;;;24.20;37.10;;;;;;5096026;28;20620;-93
2021/04/27 12:54:37;;;;;;;8.63;7.83;;;23.80;36.20;;;;;;5091164;28;20627;-93
2021/04/27 12:57:13;;;;;;;9.20;8.50;;;24.20;37.90;;;;;;5090283;28;20647;-93
2021/04/27 12:59:43;;;;;;;8.10;7.40;;;24.60;36.30;;;;;;5094498;28;20647;-93
2021/04/27 13:02:12;;;;;;;8.20;7.40;;;24.50;37.10;;;;;;5094461;28;20635;-94
2021/04/27 13:04:48;;;;;;;8.20;7.60;;;25.30;36.40;;;;;;5093521;28;20659;-94
2021/04/27 13:07:30;;;;;;;7.93;7.20;;;25.60;34.90;;;;;;5092305;28;20615;-94
2021/04/27 13:10:07;;;;;;;8.83;6.87;;;25.70;34.80;;;;;;5090022;28;20660;-93